Observation data for Dimmitt on 05/24/2020      Previous  Date  Next       Current Mesonet Observations  Soil Data  Daily Summary Page  Observations in Plain Language
KDMS 240500Z 16014G19KT 18/11 A2984 RMK A01 T01790110  RH  066%=      5-min Rain = 0
KDMS 240505Z 16015KT 18/11 A2984 RMK A01 T01800108  RH  065%=      5-min Rain = 0
KDMS 240510Z 16014KT 18/11 A2984 RMK A01 T01800107  RH  065%=      5-min Rain = 0
KDMS 240515Z 17013KT 18/11 A2984 RMK A01 T01800107  RH  064%=      5-min Rain = 0
KDMS 240520Z 16014KT 18/11 A2984 RMK A01 T01800106  RH  064%=      5-min Rain = 0
KDMS 240525Z 16015KT 18/11 A2984 RMK A01 T01810105  RH  063%=      5-min Rain = 0
KDMS 240530Z 16016KT 18/11 A2984 RMK A01 T01810105  RH  063%=      5-min Rain = 0
KDMS 240535Z 17014G20KT 18/10 A2984 RMK A01 T01820103  RH  062%=      5-min Rain = 0
KDMS 240540Z 17014KT 18/10 A2984 RMK A01 T01800104  RH  063%=      5-min Rain = 0
KDMS 240545Z 16015KT 18/10 A2984 RMK A01 T01800103  RH  063%=      5-min Rain = 0
KDMS 240550Z 16015G20KT 18/10 A2984 RMK A01 T01800103  RH  062%=      5-min Rain = 0
KDMS 240555Z 16014KT 18/10 A2984 RMK A01 T01800104  RH  063%=      5-min Rain = 0
KDMS 240600Z 16014KT 18/10 A2984 RMK A01 T01800104  RH  063%=      5-min Rain = 0
KDMS 240605Z 16015KT 18/11 A2984 RMK A01 T01810105  RH  063%=      5-min Rain = 0
KDMS 240610Z 17015KT 18/11 A2984 RMK A01 T01810107  RH  064%=      5-min Rain = 0
KDMS 240615Z 17013KT 18/11 A2984 RMK A01 T01800108  RH  065%=      5-min Rain = 0
KDMS 240620Z 17015G20KT 18/11 A2984 RMK A01 T01790110  RH  066%=      5-min Rain = 0
KDMS 240625Z 17015G20KT 18/11 A2984 RMK A01 T01810113  RH  067%=      5-min Rain = 0
KDMS 240630Z 17015KT 18/12 A2984 RMK A01 T01810115  RH  068%=      5-min Rain = 0
KDMS 240635Z 17016G21KT 18/12 A2984 RMK A01 T01810117  RH  069%=      5-min Rain = 0
KDMS 240640Z 17018G25KT 18/12 A2984 RMK A01 T01830119  RH  069%=      5-min Rain = 0
KDMS 240645Z 17017KT 18/12 A2984 RMK A01 T01840121  RH  069%=      5-min Rain = 0
KDMS 240650Z 17017G23KT 18/12 A2984 RMK A01 T01840122  RH  070%=      5-min Rain = 0
KDMS 240655Z 17018KT 18/12 A2984 RMK A01 T01840124  RH  071%=      5-min Rain = 0
KDMS 240700Z 17019G25KT 19/13 A2984 RMK A01 T01850125  RH  071%=      5-min Rain = 0
KDMS 240705Z 17018G25KT 19/13 A2984 RMK A01 T01860125  RH  070%=      5-min Rain = 0
KDMS 240710Z 17018G25KT 19/13 A2984 RMK A01 T01860125  RH  070%=      5-min Rain = 0
KDMS 240715Z 17019G25KT 19/13 A2984 RMK A01 T01860125  RH  070%=      5-min Rain = 0
KDMS 240720Z 17019G24KT 19/12 A2984 RMK A01 T01870124  RH  069%=      5-min Rain = 0
KDMS 240725Z 17019G24KT 19/12 A2985 RMK A01 T01870123  RH  069%=      5-min Rain = 0
KDMS 240730Z 17018KT 19/12 A2985 RMK A01 T01860123  RH  069%=      5-min Rain = 0
KDMS 240735Z 17017G25KT 18/12 A2985 RMK A01 T01840123  RH  070%=      5-min Rain = 0
KDMS 240740Z 17017G23KT 18/12 A2985 RMK A01 T01830123  RH  071%=      5-min Rain = 0
KDMS 240745Z 17017KT 18/12 A2985 RMK A01 T01820123  RH  071%=      5-min Rain = 0
KDMS 240750Z 17019G24KT 18/12 A2985 RMK A01 T01820122  RH  071%=      5-min Rain = 0
KDMS 240755Z 17019G24KT 18/12 A2985 RMK A01 T01820122  RH  071%=      5-min Rain = 0
KDMS 240800Z 17017G22KT 18/12 A2985 RMK A01 T01810122  RH  071%=      5-min Rain = 0
KDMS 240805Z 18017G23KT 18/12 A2985 RMK A01 T01800122  RH  071%=      5-min Rain = 0
KDMS 240810Z 17016G23KT 18/12 A2985 RMK A01 T01790121  RH  072%=      5-min Rain = 0
KDMS 240815Z 18019G26KT 18/12 A2985 RMK A01 T01790121  RH  072%=      5-min Rain = 0
KDMS 240820Z 18016G22KT 18/12 A2985 RMK A01 T01770121  RH  072%=      5-min Rain = 0
KDMS 240825Z 18017KT 18/12 A2985 RMK A01 T01750120  RH  073%=      5-min Rain = 0
KDMS 240830Z 18017G22KT 18/12 A2985 RMK A01 T01750119  RH  073%=      5-min Rain = 0
KDMS 240835Z 18017KT 17/12 A2985 RMK A01 T01740119  RH  073%=      5-min Rain = 0
KDMS 240840Z 18017KT 17/12 A2985 RMK A01 T01730118  RH  073%=      5-min Rain = 0
KDMS 240845Z 18017KT 17/12 A2985 RMK A01 T01730118  RH  073%=      5-min Rain = 0
KDMS 240850Z 18015KT 17/12 A2985 RMK A01 T01700118  RH  074%=      5-min Rain = 0
KDMS 240855Z 17015KT 17/12 A2985 RMK A01 T01700117  RH  074%=      5-min Rain = 0
KDMS 240900Z 17014KT 17/12 A2986 RMK A01 T01680117  RH  074%=      5-min Rain = 0
KDMS 240905Z 18014KT 17/12 A2986 RMK A01 T01670117  RH  075%=      5-min Rain = 0
KDMS 240910Z 18013KT 17/12 A2985 RMK A01 T01660116  RH  075%=      5-min Rain = 0
KDMS 240915Z 18013KT 16/12 A2985 RMK A01 T01640116  RH  076%=      5-min Rain = 0
KDMS 240920Z 18014KT 16/12 A2985 RMK A01 T01630116  RH  077%=      5-min Rain = 0
KDMS 240925Z 18014G19KT 16/12 A2985 RMK A01 T01630116  RH  077%=      5-min Rain = 0
KDMS 240930Z 18013KT 16/12 A2985 RMK A01 T01620116  RH  077%=      5-min Rain = 0
KDMS 240935Z 17013KT 16/12 A2985 RMK A01 T01600116  RH  078%=      5-min Rain = 0
KDMS 240940Z 17013KT 16/12 A2985 RMK A01 T01590116  RH  079%=      5-min Rain = 0
KDMS 240945Z 18013KT 16/12 A2985 RMK A01 T01570116  RH  079%=      5-min Rain = 0
KDMS 240950Z 17013KT 16/12 A2986 RMK A01 T01570115  RH  079%=      5-min Rain = 0
KDMS 240955Z 17013KT 16/12 A2986 RMK A01 T01560115  RH  079%=      5-min Rain = 0
KDMS 241000Z 17013KT 16/12 A2986 RMK A01 T01560115  RH  080%=      5-min Rain = 0
KDMS 241005Z 18012KT 16/12 A2986 RMK A01 T01550115  RH  080%=      5-min Rain = 0
KDMS 241010Z 18011KT 15/11 A2986 RMK A01 T01520114  RH  081%=      5-min Rain = 0
KDMS 241015Z 18011KT 15/11 A2986 RMK A01 T01510114  RH  081%=      5-min Rain = 0
KDMS 241020Z 18011KT 15/11 A2987 RMK A01 T01500114  RH  082%=      5-min Rain = 0
KDMS 241025Z 18011KT 15/11 A2986 RMK A01 T01490113  RH  082%=      5-min Rain = 0
KDMS 241030Z 18011KT 15/11 A2986 RMK A01 T01480112  RH  082%=      5-min Rain = 0
KDMS 241035Z 18011KT 15/11 A2986 RMK A01 T01470112  RH  082%=      5-min Rain = 0
KDMS 241040Z 18011KT 15/11 A2987 RMK A01 T01450111  RH  083%=      5-min Rain = 0
KDMS 241045Z 18011KT 14/11 A2986 RMK A01 T01440111  RH  083%=      5-min Rain = 0
KDMS 241050Z 18011KT 14/11 A2986 RMK A01 T01440111  RH  083%=      5-min Rain = 0
KDMS 241055Z 18011KT 14/11 A2986 RMK A01 T01440110  RH  083%=      5-min Rain = 0
KDMS 241100Z 18011KT 14/11 A2987 RMK A01 T01430110  RH  083%=      5-min Rain = 0
KDMS 241105Z 18011KT 14/11 A2987 RMK A01 T01430109  RH  083%=      5-min Rain = 0
KDMS 241110Z 18011KT 14/11 A2987 RMK A01 T01420109  RH  083%=      5-min Rain = 0
KDMS 241115Z 18011KT 14/11 A2987 RMK A01 T01420108  RH  083%=      5-min Rain = 0
KDMS 241120Z 18012KT 14/11 A2987 RMK A01 T01410108  RH  083%=      5-min Rain = 0
KDMS 241125Z 18012KT 14/11 A2986 RMK A01 T01410107  RH  083%=      5-min Rain = 0
KDMS 241130Z 18012KT 14/11 A2986 RMK A01 T01390107  RH  084%=      5-min Rain = 0
KDMS 241135Z 18012KT 14/11 A2986 RMK A01 T01380107  RH  085%=      5-min Rain = 0
KDMS 241140Z 18012KT 14/11 A2986 RMK A01 T01390107  RH  084%=      5-min Rain = 0
KDMS 241145Z 18012KT 14/11 A2986 RMK A01 T01390107  RH  084%=      5-min Rain = 0
KDMS 241150Z 18011KT 14/11 A2987 RMK A01 T01380107  RH  084%=      5-min Rain = 0
KDMS 241155Z 19011KT 14/11 A2987 RMK A01 T01360107  RH  085%=      5-min Rain = 0
KDMS 241200Z 19012G18KT 14/11 A2987 RMK A01 T01360107  RH  086%=      5-min Rain = 0
KDMS 241205Z 18016KT 14/11 A2986 RMK A01 T01400108  RH  084%=      5-min Rain = 0
KDMS 241210Z 19014KT 14/11 A2987 RMK A01 T01430109  RH  083%=      5-min Rain = 0
KDMS 241215Z 19014KT 14/11 A2987 RMK A01 T01440109  RH  082%=      5-min Rain = 0
KDMS 241220Z 19015KT 15/11 A2986 RMK A01 T01450109  RH  082%=      5-min Rain = 0
KDMS 241225Z 19014KT 15/11 A2986 RMK A01 T01460110  RH  082%=      5-min Rain = 0
KDMS 241230Z 19014KT 15/11 A2987 RMK A01 T01470110  RH  081%=      5-min Rain = 0
KDMS 241235Z 20013KT 15/11 A2987 RMK A01 T01480111  RH  081%=      5-min Rain = 0
KDMS 241240Z 19013G18KT 15/11 A2987 RMK A01 T01490111  RH  081%=      5-min Rain = 0
KDMS 241245Z 19013KT 15/11 A2987 RMK A01 T01510112  RH  080%=      5-min Rain = 0
KDMS 241250Z 20015KT 15/11 A2987 RMK A01 T01520112  RH  079%=      5-min Rain = 0
KDMS 241255Z 20015G20KT 16/11 A2987 RMK A01 T01560113  RH  078%=      5-min Rain = 0
KDMS 241300Z 20017G22KT 16/11 A2987 RMK A01 T01600114  RH  077%=      5-min Rain = 0
KDMS 241305Z 20016G21KT 17/12 A2987 RMK A01 T01650115  RH  075%=      5-min Rain = 0
KDMS 241310Z 20016KT 17/12 A2987 RMK A01 T01680117  RH  074%=      5-min Rain = 0
KDMS 241315Z 20016G22KT 17/12 A2986 RMK A01 T01740118  RH  072%=      5-min Rain = 0
KDMS 241320Z 21016KT 18/12 A2986 RMK A01 T01750118  RH  072%=      5-min Rain = 0
KDMS 241325Z 20016G22KT 17/12 A2986 RMK A01 T01740118  RH  072%=      5-min Rain = 0
KDMS 241330Z 20015KT 18/12 A2987 RMK A01 T01760118  RH  072%=      5-min Rain = 0
KDMS 241335Z 21015G20KT 18/12 A2987 RMK A01 T01770119  RH  071%=      5-min Rain = 0
KDMS 241340Z 21016G21KT 18/12 A2986 RMK A01 T01770119  RH  071%=      5-min Rain = 0
KDMS 241345Z 21016G22KT 18/12 A2986 RMK A01 T01770119  RH  071%=      5-min Rain = 0
KDMS 241350Z 20016G23KT 18/12 A2986 RMK A01 T01780120  RH  071%=      5-min Rain = 0
KDMS 241355Z 20015KT 18/12 A2986 RMK A01 T01790120  RH  071%=      5-min Rain = 0
KDMS 241400Z 20016G21KT 18/12 A2986 RMK A01 T01790121  RH  071%=      5-min Rain = 0
KDMS 241405Z 21018KT 18/12 A2986 RMK A01 T01800121  RH  071%=      5-min Rain = 0
KDMS 241410Z 21017G23KT 18/12 A2986 RMK A01 T01810122  RH  071%=      5-min Rain = 0
KDMS 241415Z 21017G22KT 18/12 A2986 RMK A01 T01840123  RH  070%=      5-min Rain = 0
KDMS 241420Z 21017G22KT 19/12 A2986 RMK A01 T01870123  RH  069%=      5-min Rain = 0
KDMS 241425Z 21015G20KT 19/12 A2986 RMK A01 T01880124  RH  069%=      5-min Rain = 0
KDMS 241430Z 21015G21KT 19/13 A2985 RMK A01 T01900125  RH  069%=      5-min Rain = 0
KDMS 241435Z 22018G23KT 19/13 A2985 RMK A01 T01930125  RH  068%=      5-min Rain = 0
KDMS 241440Z 21017KT 20/13 A2985 RMK A01 T01990127  RH  066%=      5-min Rain = 0
KDMS 241445Z 21016G22KT 20/13 A2985 RMK A01 T02020128  RH  065%=      5-min Rain = 0
KDMS 241450Z 21018KT 20/13 A2985 RMK A01 T02040128  RH  064%=      5-min Rain = 0
KDMS 241455Z 22016KT 21/13 A2985 RMK A01 T02060128  RH  064%=      5-min Rain = 0
KDMS 241500Z 21016G22KT 21/13 A2985 RMK A01 T02090129  RH  062%=      5-min Rain = 0
KDMS 241505Z 21016KT 21/13 A2985 RMK A01 T02120129  RH  061%=      5-min Rain = 0
KDMS 241510Z 21017KT 22/13 A2985 RMK A01 T02170130  RH  060%=      5-min Rain = 0
KDMS 241515Z 21016G21KT 22/13 A2985 RMK A01 T02200130  RH  059%=      5-min Rain = 0
KDMS 241520Z 21016KT 22/13 A2985 RMK A01 T02210129  RH  058%=      5-min Rain = 0
KDMS 241525Z 21013G18KT 23/13 A2985 RMK A01 T02250129  RH  057%=      5-min Rain = 0
KDMS 241530Z 21014KT 23/13 A2985 RMK A01 T02270129  RH  056%=      5-min Rain = 0
KDMS 241535Z 21015KT 23/13 A2985 RMK A01 T02290126  RH  054%=      5-min Rain = 0
KDMS 241540Z 21015KT 23/13 A2985 RMK A01 T02310125  RH  054%=      5-min Rain = 0
KDMS 241545Z 21014G19KT 23/13 A2985 RMK A01 T02330125  RH  053%=      5-min Rain = 0
KDMS 241550Z 21014G19KT 24/12 A2985 RMK A01 T02350124  RH  052%=      5-min Rain = 0
KDMS 241555Z 21012G17KT 24/12 A2986 RMK A01 T02380123  RH  050%=      5-min Rain = 0
KDMS 241600Z 23010KT 24/12 A2986 RMK A01 T02410123  RH  049%=      5-min Rain = 0
KDMS 241605Z 23011KT 24/12 A2987 RMK A01 T02410120  RH  048%=      5-min Rain = 0
KDMS 241610Z 21010G15KT 24/12 A2986 RMK A01 T02420121  RH  048%=      5-min Rain = 0
KDMS 241615Z 23009G14KT 25/12 A2986 RMK A01 T02470120  RH  047%=      5-min Rain = 0
KDMS 241620Z 23007KT 25/11 A2986 RMK A01 T02470113  RH  044%=      5-min Rain = 0
KDMS 241625Z 24008KT 25/11 A2987 RMK A01 T02470114  RH  045%=      5-min Rain = 0
KDMS 241630Z 22009KT 25/12 A2986 RMK A01 T02500117  RH  045%=      5-min Rain = 0
KDMS 241635Z 22010KT 25/12 A2985 RMK A01 T02520116  RH  044%=      5-min Rain = 0
KDMS 241640Z 21010G17KT 25/12 A2985 RMK A01 T02530116  RH  044%=      5-min Rain = 0
KDMS 241645Z 24011G17KT 26/11 A2985 RMK A01 T02560112  RH  042%=      5-min Rain = 0
KDMS 241650Z 24009G14KT 26/11 A2986 RMK A01 T02580106  RH  040%=      5-min Rain = 0
KDMS 241655Z 23009KT 26/10 A2986 RMK A01 T02610104  RH  039%=      5-min Rain = 0
KDMS 241700Z 23009KT 26/10 A2986 RMK A01 T02630098  RH  037%=      5-min Rain = 0
KDMS 241705Z 24010G15KT 27/10 A2985 RMK A01 T02660097  RH  036%=      5-min Rain = 0
KDMS 241710Z 23008G14KT 27/09 A2985 RMK A01 T02650092  RH  035%=      5-min Rain = 0
KDMS 241715Z 22010KT 27/09 A2985 RMK A01 T02710089  RH  033%=      5-min Rain = 0
KDMS 241720Z 24011G16KT 27/09 A2985 RMK A01 T02740087  RH  032%=      5-min Rain = 0
KDMS 241725Z 25010G15KT 27/08 A2985 RMK A01 T02730079  RH  030%=      5-min Rain = 0
KDMS 241730Z 26009G14KT 27/08 A2985 RMK A01 T02740079  RH  030%=      5-min Rain = 0
KDMS 241735Z 24010KT 28/07 A2985 RMK A01 T02770071  RH  028%=      5-min Rain = 0
KDMS 241740Z 25009KT 28/06 A2986 RMK A01 T02800060  RH  025%=      5-min Rain = 0
KDMS 241745Z 23009KT 28/07 A2986 RMK A01 T02770072  RH  028%=      5-min Rain = 0
KDMS 241750Z 21009KT 28/08 A2985 RMK A01 T02790075  RH  028%=      5-min Rain = 0
KDMS 241755Z 21009G15KT 28/08 A2985 RMK A01 T02820080  RH  029%=      5-min Rain = 0
KDMS 241800Z 24010G15KT 28/07 A2985 RMK A01 T02810070  RH  027%=      5-min Rain = 0
KDMS 241805Z 23007G12KT 28/07 A2985 RMK A01 T02820070  RH  027%=      5-min Rain = 0
KDMS 241810Z 23007G15KT 29/07 A2985 RMK A01 T02870069  RH  026%=      5-min Rain = 0
KDMS 241815Z 23008G13KT 29/06 A2984 RMK A01 T02850064  RH  025%=      5-min Rain = 0
KDMS 241820Z 23005KT 29/06 A2984 RMK A01 T02860061  RH  025%=      5-min Rain = 0
KDMS 241825Z 23010KT 29/04 A2984 RMK A01 T02880044  RH  022%=      5-min Rain = 0
KDMS 241830Z 23008KT 29/04 A2984 RMK A01 T02900038  RH  020%=      5-min Rain = 0
KDMS 241835Z 23008KT 29/04 A2984 RMK A01 T02870044  RH  022%=      5-min Rain = 0
KDMS 241840Z 21006G12KT 29/05 A2984 RMK A01 T02870045  RH  022%=      5-min Rain = 0
KDMS 241845Z 21009KT 30/05 A2984 RMK A01 T02960045  RH  021%=      5-min Rain = 0
KDMS 241850Z 22007G12KT 29/03 A2983 RMK A01 T02940025  RH  018%=      5-min Rain = 0
KDMS 241855Z 23007KT 29/03 A2983 RMK A01 T02940031  RH  019%=      5-min Rain = 0
KDMS 241900Z 25004KT 29/03 A2983 RMK A01 T02920032  RH  019%=      5-min Rain = 0
KDMS 241905Z 22009KT 30/03 A2983 RMK A01 T02990025  RH  018%=      5-min Rain = 0
KDMS 241910Z 24008G13KT 30/02 A2983 RMK A01 T02990018  RH  017%=      5-min Rain = 0
KDMS 241915Z 24006G14KT 30/02 A2982 RMK A01 T02980016  RH  017%=      5-min Rain = 0
KDMS 241920Z 19009KT 30/03 A2982 RMK A01 T02990026  RH  018%=      5-min Rain = 0
KDMS 241925Z 20006G11KT 30/03 A2982 RMK A01 T03000026  RH  018%=      5-min Rain = 0
KDMS 241930Z 21008G13KT 30/02 A2982 RMK A01 T03020016  RH  016%=      5-min Rain = 0
KDMS 241935Z 20004KT 30/02 A2982 RMK A01 T02990017  RH  017%=      5-min Rain = 0
KDMS 241940Z 19010KT 30/03 A2981 RMK A01 T03020025  RH  017%=      5-min Rain = 0
KDMS 241945Z 21006G11KT 31/03 A2981 RMK A01 T03070025  RH  017%=      5-min Rain = 0
KDMS 241950Z 22007G16KT 31/02 A2981 RMK A01 T03050017  RH  016%=      5-min Rain = 0
KDMS 241955Z 22010G16KT 31/02 A2981 RMK A01 T03080015  RH  016%=      5-min Rain = 0
KDMS 242000Z 22009KT 31/01 A298 RMK A01 T03100012  RH  015%=      5-min Rain = 0
KDMS 242005Z 20012KT 31/01 A298 RMK A01 T03120008  RH  014%=      5-min Rain = 0
KDMS 242010Z 21010G16KT 31/01 A298 RMK A01 T03140007  RH  014%=      5-min Rain = 0
KDMS 242015Z 21008G15KT 31/00 A298 RMK A01 T03100003  RH  014%=      5-min Rain = 0
KDMS 242020Z 19008G17KT 31/01 A2979 RMK A01 T03130010  RH  015%=      5-min Rain = 0
KDMS 242025Z 20009G14KT 32/01 A2979 RMK A01 T03150009  RH  014%=      5-min Rain = 0
KDMS 242030Z 17005G12KT 32/01 A2979 RMK A01 T03160007  RH  014%=      5-min Rain = 0
KDMS 242035Z 22013G21KT 32/M00 A2979 RMK A01 T03181004  RH  013%=      5-min Rain = 0
KDMS 242040Z 20011G16KT 32/M01 A2978 RMK A01 T03191005  RH  013%=      5-min Rain = 0
KDMS 242045Z 21012G17KT 32/M01 A2978 RMK A01 T03201006  RH  012%=      5-min Rain = 0
KDMS 242050Z 21010KT 32/M01 A2978 RMK A01 T03211005  RH  012%=      5-min Rain = 0
KDMS 242055Z 20010G17KT 32/M01 A2977 RMK A01 T03201010  RH  012%=      5-min Rain = 0
KDMS 242100Z 21008G15KT 32/M01 A2977 RMK A01 T03191009  RH  012%=      5-min Rain = 0
KDMS 242105Z 23013KT 32/M01 A2977 RMK A01 T03191005  RH  013%=      5-min Rain = 0
KDMS 242110Z 24010G18KT 32/M01 A2977 RMK A01 T03211006  RH  012%=      5-min Rain = 0
KDMS 242115Z 22008G13KT 32/M01 A2977 RMK A01 T03201010  RH  012%=      5-min Rain = 0
KDMS 242120Z 21007KT 32/M01 A2976 RMK A01 T03181009  RH  012%=      5-min Rain = 0
KDMS 242125Z 26010KT 32/M01 A2976 RMK A01 T03161007  RH  013%=      5-min Rain = 0
KDMS 242130Z 27011G17KT 31/M01 A2976 RMK A01 T03091013  RH  013%=      5-min Rain = 0
KDMS 242135Z 27012KT 30/M01 A2976 RMK A01 T03031013  RH  013%=      5-min Rain = 0
KDMS 242140Z 26011KT 30/M01 A2976 RMK A01 T03041009  RH  013%=      5-min Rain = 0
KDMS 242145Z 24010KT 30/M01 A2975 RMK A01 T03021006  RH  014%=      5-min Rain = 0
KDMS 242150Z 25009KT 30/M01 A2975 RMK A01 T03001013  RH  013%=      5-min Rain = 0
KDMS 242155Z 24008G13KT 30/M01 A2975 RMK A01 T03001009  RH  014%=      5-min Rain = 0
KDMS 242200Z 25008KT 30/M01 A2975 RMK A01 T03001012  RH  013%=      5-min Rain = 0
KDMS 242205Z 24009KT 30/M01 A2975 RMK A01 T03011006  RH  014%=      5-min Rain = 0
KDMS 242210Z 24009KT 30/M00 A2975 RMK A01 T03021002  RH  014%=      5-min Rain = 0
KDMS 242215Z 24009KT 30/00 A2974 RMK A01 T030300-0  RH  014%=      5-min Rain = 0
KDMS 242220Z 21008KT 31/00 A2974 RMK A01 T03080001  RH  014%=      5-min Rain = 0
KDMS 242225Z 16009KT 31/05 A2974 RMK A01 T03090049  RH  021%=      5-min Rain = 0
KDMS 242230Z 16013G18KT 30/09 A2973 RMK A01 T02970092  RH  029%=      5-min Rain = 0
KDMS 242235Z 17014G19KT 29/09 A2973 RMK A01 T02920086  RH  028%=      5-min Rain = 0
KDMS 242240Z 16015KT 29/07 A2972 RMK A01 T02850074  RH  027%=      5-min Rain = 0
KDMS 242245Z 16012KT 28/07 A2972 RMK A01 T02820073  RH  027%=      5-min Rain = 0
KDMS 242250Z 14016G22KT 28/06 A2971 RMK A01 T02810062  RH  026%=      5-min Rain = 0
KDMS 242255Z 14017KT 28/05 A2971 RMK A01 T02800052  RH  024%=      5-min Rain = 0
KDMS 242300Z 13013KT 28/04 A2971 RMK A01 T02790041  RH  022%=      5-min Rain = 0
KDMS 242305Z 13013KT 28/04 A2971 RMK A01 T02770040  RH  022%=      5-min Rain = 0
KDMS 242310Z 13011KT 28/04 A2971 RMK A01 T02760040  RH  023%=      5-min Rain = 0
KDMS 242315Z 12010KT 28/04 A2971 RMK A01 T02760038  RH  022%=      5-min Rain = 0
KDMS 242320Z 13010KT 28/04 A2972 RMK A01 T02750042  RH  023%=      5-min Rain = 0
KDMS 242325Z 13010KT 27/04 A2972 RMK A01 T02730041  RH  023%=      5-min Rain = 0
KDMS 242330Z 14009KT 27/04 A2972 RMK A01 T02730043  RH  023%=      5-min Rain = 0
KDMS 242335Z 14009KT 27/04 A2972 RMK A01 T02730044  RH  023%=      5-min Rain = 0
KDMS 242340Z 13008KT 27/05 A2972 RMK A01 T02720049  RH  025%=      5-min Rain = 0
KDMS 242345Z 13008KT 27/05 A2972 RMK A01 T02680050  RH  025%=      5-min Rain = 0
KDMS 242350Z 13008KT 27/04 A2971 RMK A01 T02670044  RH  024%=      5-min Rain = 0
KDMS 242355Z 14008KT 27/04 A2971 RMK A01 T02660043  RH  024%=      5-min Rain = 0
KDMS 250000Z 14010KT 27/04 A2971 RMK A01 T02650044  RH  025%=      5-min Rain = 0
KDMS 250005Z 14009KT 26/04 A2971 RMK A01 T02640042  RH  025%=      5-min Rain = 0
KDMS 250010Z 14008KT 26/04 A2971 RMK A01 T02620043  RH  025%=      5-min Rain = 0
KDMS 250015Z 14008KT 26/05 A297 RMK A01 T02610046  RH  026%=      5-min Rain = 0
KDMS 250020Z 13008KT 26/05 A297 RMK A01 T02600047  RH  026%=      5-min Rain = 0
KDMS 250025Z 13007KT 26/05 A2969 RMK A01 T02580051  RH  027%=      5-min Rain = 0
KDMS 250030Z 14007KT 26/06 A2969 RMK A01 T02570055  RH  028%=      5-min Rain = 0
KDMS 250035Z 14007KT 26/06 A2969 RMK A01 T02560060  RH  029%=      5-min Rain = 0
KDMS 250040Z 14008KT 26/07 A2969 RMK A01 T02550066  RH  031%=      5-min Rain = 0
KDMS 250045Z 15008KT 25/07 A2969 RMK A01 T02540072  RH  032%=      5-min Rain = 0
KDMS 250050Z 16008KT 25/08 A2969 RMK A01 T02530080  RH  034%=      5-min Rain = 0
KDMS 250055Z 15009KT 25/09 A2969 RMK A01 T02520086  RH  036%=      5-min Rain = 0
KDMS 250100Z 15007KT 25/09 A2968 RMK A01 T02510088  RH  037%=      5-min Rain = 0
KDMS 250105Z 16006KT 25/09 A2968 RMK A01 T02500091  RH  038%=      5-min Rain = 0
KDMS 250110Z 17005KT 25/09 A2967 RMK A01 T02490093  RH  038%=      5-min Rain = 0
KDMS 250115Z 17005KT 25/09 A2967 RMK A01 T02500094  RH  039%=      5-min Rain = 0
KDMS 250120Z 17006KT 25/09 A2967 RMK A01 T02500092  RH  038%=      5-min Rain = 0
KDMS 250125Z 18006KT 25/08 A2967 RMK A01 T02520083  RH  035%=      5-min Rain = 0
KDMS 250130Z 20007KT 25/09 A2967 RMK A01 T02500087  RH  036%=      5-min Rain = 0
KDMS 250135Z 19006KT 25/09 A2967 RMK A01 T02460090  RH  038%=      5-min Rain = 0
KDMS 250140Z 20007KT 24/09 A2968 RMK A01 T02430086  RH  038%=      5-min Rain = 0
KDMS 250145Z 20007KT 24/08 A2968 RMK A01 T02410082  RH  037%=      5-min Rain = 0
KDMS 250150Z 20008KT 24/08 A2969 RMK A01 T02390080  RH  037%=      5-min Rain = 0
KDMS 250155Z 20008KT 24/08 A2969 RMK A01 T02380076  RH  036%=      5-min Rain = 0
KDMS 250200Z 20007KT 24/08 A2969 RMK A01 T02370075  RH  036%=      5-min Rain = 0
KDMS 250205Z 21006KT 24/07 A297 RMK A01 T02370069  RH  035%=      5-min Rain = 0
KDMS 250210Z 20006KT 23/07 A297 RMK A01 T02340067  RH  035%=      5-min Rain = 0
KDMS 250215Z 21007KT 23/06 A297 RMK A01 T02310061  RH  034%=      5-min Rain = 0
KDMS 250220Z 22008KT 23/06 A2969 RMK A01 T02310064  RH  035%=      5-min Rain = 0
KDMS 250225Z 21007KT 23/06 A2969 RMK A01 T02310060  RH  034%=      5-min Rain = 0
KDMS 250230Z 20006KT 23/06 A297 RMK A01 T02300060  RH  034%=      5-min Rain = 0
KDMS 250235Z 19006KT 23/06 A297 RMK A01 T02280058  RH  034%=      5-min Rain = 0
KDMS 250240Z 20008KT 23/06 A2971 RMK A01 T02250061  RH  035%=      5-min Rain = 0
KDMS 250245Z 19008KT 22/06 A2972 RMK A01 T02240062  RH  036%=      5-min Rain = 0
KDMS 250250Z 19008KT 22/06 A2972 RMK A01 T02230063  RH  036%=      5-min Rain = 0
KDMS 250255Z 20008KT 22/07 A2972 RMK A01 T02210066  RH  038%=      5-min Rain = 0
KDMS 250300Z 20008KT 22/07 A2972 RMK A01 T02180067  RH  039%=      5-min Rain = 0
KDMS 250305Z 19007KT 22/07 A2972 RMK A01 T02160068  RH  039%=      5-min Rain = 0
KDMS 250310Z 20007KT 21/07 A2971 RMK A01 T02140069  RH  040%=      5-min Rain = 0
KDMS 250315Z 20007KT 21/07 A2971 RMK A01 T02130067  RH  040%=      5-min Rain = 0
KDMS 250320Z 20007KT 21/07 A2971 RMK A01 T02130065  RH  039%=      5-min Rain = 0
KDMS 250325Z 20008KT 21/07 A2971 RMK A01 T02130065  RH  039%=      5-min Rain = 0
KDMS 250330Z 20009KT 21/06 A297 RMK A01 T02140061  RH  038%=      5-min Rain = 0
KDMS 250335Z 20009KT 21/06 A297 RMK A01 T02120062  RH  039%=      5-min Rain = 0
KDMS 250340Z 18016G22KT 21/06 A2971 RMK A01 T02120060  RH  038%=      5-min Rain = 0
KDMS 250345Z 18014KT 21/07 A2972 RMK A01 T02080065  RH  040%=      5-min Rain = 0
KDMS 250350Z 18014KT 20/07 A2972 RMK A01 T02020069  RH  043%=      5-min Rain = 0
KDMS 250355Z 18013KT 20/07 A2973 RMK A01 T01980073  RH  045%=      5-min Rain = 0
KDMS 250400Z 18011KT 20/08 A2973 RMK A01 T01960076  RH  047%=      5-min Rain = 0
KDMS 250405Z 18011KT 19/08 A2973 RMK A01 T01930080  RH  049%=      5-min Rain = 0
KDMS 250410Z 16012KT 19/08 A2973 RMK A01 T01910083  RH  051%=      5-min Rain = 0
KDMS 250415Z 15011G16KT 19/09 A2974 RMK A01 T01890085  RH  052%=      5-min Rain = 0
KDMS 250420Z 14011KT 19/09 A2974 RMK A01 T01880087  RH  053%=      5-min Rain = 0
KDMS 250425Z 15010KT 19/09 A2974 RMK A01 T01860089  RH  055%=      5-min Rain = 0
KDMS 250430Z 16011KT 19/09 A2974 RMK A01 T01850089  RH  055%=      5-min Rain = 0
KDMS 250435Z 16010KT 19/09 A2974 RMK A01 T01850089  RH  055%=      5-min Rain = 0
KDMS 250440Z 14009KT 19/09 A2974 RMK A01 T01850089  RH  055%=      5-min Rain = 0
KDMS 250445Z 15010KT 19/09 A2974 RMK A01 T01850089  RH  055%=      5-min Rain = 0
KDMS 250450Z 14009KT 18/09 A2975 RMK A01 T01830090  RH  056%=      5-min Rain = 0
KDMS 250455Z 14009KT 18/09 A2976 RMK A01 T01830091  RH  057%=      5-min Rain = 0

Page generated in 0.0091 seconds.